sensor_id;sensor_type;location;lat;lon;timestamp;temperature;humidity
3086;DHT22;52812;48.960;9.108;2022-09-17T00:02:21;9.60;99.90
3086;DHT22;52812;48.960;9.108;2022-09-17T00:04:50;9.60;99.90
3086;DHT22;52812;48.960;9.108;2022-09-17T00:07:15;9.70;99.90
3086;DHT22;52812;48.960;9.108;2022-09-17T00:09:41;9.70;99.90
3086;DHT22;52812;48.960;9.108;2022-09-17T00:12:06;9.80;99.90
3086;DHT22;52812;48.960;9.108;2022-09-17T00:14:32;9.90;99.90
3086;DHT22;52812;48.960;9.108;2022-09-17T00:16:57;9.90;99.90
3086;DHT22;52812;48.960;9.108;2022-09-17T00:19:23;9.90;99.90
3086;DHT22;52812;48.960;9.108;2022-09-17T00:21:49;9.90;99.90
3086;DHT22;52812;48.960;9.108;2022-09-17T00:24:16;9.90;99.90
3086;DHT22;52812;48.960;9.108;2022-09-17T00:26:42;9.90;99.90
3086;DHT22;52812;48.960;9.108;2022-09-17T00:29:08;9.90;99.90
3086;DHT22;52812;48.960;9.108;2022-09-17T00:31:34;9.90;99.90
3086;DHT22;52812;48.960;9.108;2022-09-17T00:34:01;9.90;99.90
3086;DHT22;52812;48.960;9.108;2022-09-17T00:36:28;9.90;99.90
3086;DHT22;52812;48.960;9.108;2022-09-17T00:38:56;9.90;99.90
3086;DHT22;52812;48.960;9.108;2022-09-17T00:41:24;9.80;99.90
3086;DHT22;52812;48.960;9.108;2022-09-17T00:43:53;9.80;99.90
3086;DHT22;52812;48.960;9.108;2022-09-17T00:46:40;9.80;99.90
3086;DHT22;52812;48.960;9.108;2022-09-17T00:49:27;9.70;99.90
3086;DHT22;52812;48.960;9.108;2022-09-17T00:52:00;9.60;99.90
3086;DHT22;52812;48.960;9.108;2022-09-17T00:54:28;9.60;99.90
3086;DHT22;52812;48.960;9.108;2022-09-17T00:56:55;9.50;99.90
3086;DHT22;52812;48.960;9.108;2022-09-17T00:59:22;9.50;99.90
3086;DHT22;52812;48.960;9.108;2022-09-17T01:01:49;9.40;99.90
3086;DHT22;52812;48.960;9.108;2022-09-17T01:04:20;9.30;99.90
3086;DHT22;52812;48.960;9.108;2022-09-17T01:09:35;9.30;99.90
3086;DHT22;52812;48.960;9.108;2022-09-17T01:28:51;9.00;99.90
3086;DHT22;52812;48.960;9.108;2022-09-17T01:34:19;8.90;99.90
3086;DHT22;52812;48.960;9.108;2022-09-17T01:37:12;8.80;99.90
3086;DHT22;52812;48.960;9.108;2022-09-17T01:40:04;8.80;99.90
3086;DHT22;52812;48.960;9.108;2022-09-17T01:45:41;8.80;99.90
3086;DHT22;52812;48.960;9.108;2022-09-17T01:48:14;8.80;99.90
3086;DHT22;52812;48.960;9.108;2022-09-17T01:51:02;8.70;99.90
3086;DHT22;52812;48.960;9.108;2022-09-17T01:53:54;8.70;99.90
3086;DHT22;52812;48.960;9.108;2022-09-17T01:56:38;8.70;99.90
3086;DHT22;52812;48.960;9.108;2022-09-17T01:59:13;8.70;99.90
3086;DHT22;52812;48.960;9.108;2022-09-17T02:01:42;8.80;99.90
3086;DHT22;52812;48.960;9.108;2022-09-17T02:04:18;8.80;99.90
3086;DHT22;52812;48.960;9.108;2022-09-17T02:06:51;8.80;99.90
3086;DHT22;52812;48.960;9.108;2022-09-17T02:09:28;8.80;99.90
3086;DHT22;52812;48.960;9.108;2022-09-17T02:11:58;8.90;99.90
3086;DHT22;52812;48.960;9.108;2022-09-17T02:14:32;9.00;99.90
3086;DHT22;52812;48.960;9.108;2022-09-17T02:17:06;9.00;99.90
3086;DHT22;52812;48.960;9.108;2022-09-17T02:19:37;9.10;99.90
3086;DHT22;52812;48.960;9.108;2022-09-17T02:24:43;9.30;99.90
3086;DHT22;52812;48.960;9.108;2022-09-17T02:27:17;9.30;99.90
3086;DHT22;52812;48.960;9.108;2022-09-17T02:29:45;9.40;99.90
3086;DHT22;52812;48.960;9.108;2022-09-17T02:32:11;9.40;99.90
3086;DHT22;52812;48.960;9.108;2022-09-17T02:34:37;9.40;99.90
3086;DHT22;52812;48.960;9.108;2022-09-17T02:37:04;9.50;99.90
3086;DHT22;52812;48.960;9.108;2022-09-17T02:39:30;9.50;99.90
3086;DHT22;52812;48.960;9.108;2022-09-17T02:42:23;9.50;99.90
3086;DHT22;52812;48.960;9.108;2022-09-17T02:50:29;9.50;99.90
3086;DHT22;52812;48.960;9.108;2022-09-17T02:58:46;9.30;99.90
3086;DHT22;52812;48.960;9.108;2022-09-17T03:01:29;9.30;99.90
3086;DHT22;52812;48.960;9.108;2022-09-17T03:03:59;9.20;99.90
3086;DHT22;52812;48.960;9.108;2022-09-17T03:06:26;9.20;99.90
3086;DHT22;52812;48.960;9.108;2022-09-17T03:08:51;9.20;99.90
3086;DHT22;52812;48.960;9.108;2022-09-17T03:11:17;9.10;99.90
3086;DHT22;52812;48.960;9.108;2022-09-17T03:13:43;9.10;99.90
3086;DHT22;52812;48.960;9.108;2022-09-17T03:24:05;9.00;99.90
3086;DHT22;52812;48.960;9.108;2022-09-17T03:26:38;8.80;99.90
3086;DHT22;52812;48.960;9.108;2022-09-17T03:29:04;8.80;99.90
3086;DHT22;52812;48.960;9.108;2022-09-17T03:31:30;8.80;99.90
3086;DHT22;52812;48.960;9.108;2022-09-17T03:33:59;8.80;99.90
3086;DHT22;52812;48.960;9.108;2022-09-17T03:39:52;8.80;99.90
3086;DHT22;52812;48.960;9.108;2022-09-17T03:43:11;8.90;99.90
3086;DHT22;52812;48.960;9.108;2022-09-17T03:46:25;8.80;99.90
3086;DHT22;52812;48.960;9.108;2022-09-17T03:52:52;8.70;99.90
3086;DHT22;52812;48.960;9.108;2022-09-17T03:55:38;8.60;99.90
3086;DHT22;52812;48.960;9.108;2022-09-17T03:58:11;8.60;99.90
3086;DHT22;52812;48.960;9.108;2022-09-17T04:01:05;8.60;99.90
3086;DHT22;52812;48.960;9.108;2022-09-17T04:04:26;8.50;99.90
3086;DHT22;52812;48.960;9.108;2022-09-17T04:14:06;8.60;99.90
3086;DHT22;52812;48.960;9.108;2022-09-17T04:21:34;8.60;99.90
3086;DHT22;52812;48.960;9.108;2022-09-17T04:24:00;8.60;99.90
3086;DHT22;52812;48.960;9.108;2022-09-17T04:31:29;8.80;99.90
3086;DHT22;52812;48.960;9.108;2022-09-17T04:34:03;8.90;99.90
3086;DHT22;52812;48.960;9.108;2022-09-17T04:36:38;9.00;99.90
3086;DHT22;52812;48.960;9.108;2022-09-17T04:39:03;9.10;99.90
3086;DHT22;52812;48.960;9.108;2022-09-17T04:41:29;9.10;99.90
3086;DHT22;52812;48.960;9.108;2022-09-17T04:43:54;9.20;99.90
3086;DHT22;52812;48.960;9.108;2022-09-17T04:46:20;9.20;99.90
3086;DHT22;52812;48.960;9.108;2022-09-17T04:48:45;9.20;99.90
3086;DHT22;52812;48.960;9.108;2022-09-17T04:51:11;9.20;99.90
3086;DHT22;52812;48.960;9.108;2022-09-17T04:53:37;9.20;99.90
3086;DHT22;52812;48.960;9.108;2022-09-17T04:56:03;9.20;99.90
3086;DHT22;52812;48.960;9.108;2022-09-17T04:58:28;9.20;99.90
3086;DHT22;52812;48.960;9.108;2022-09-17T05:00:55;9.20;99.90
3086;DHT22;52812;48.960;9.108;2022-09-17T05:03:21;9.10;99.90
3086;DHT22;52812;48.960;9.108;2022-09-17T05:05:46;9.10;99.90
3086;DHT22;52812;48.960;9.108;2022-09-17T05:08:12;9.00;99.90
3086;DHT22;52812;48.960;9.108;2022-09-17T05:10:37;9.00;99.90
3086;DHT22;52812;48.960;9.108;2022-09-17T05:13:03;8.90;99.90
3086;DHT22;52812;48.960;9.108;2022-09-17T05:15:28;8.90;99.90
3086;DHT22;52812;48.960;9.108;2022-09-17T05:17:54;8.90;99.90
3086;DHT22;52812;48.960;9.108;2022-09-17T05:20:20;8.90;99.90
3086;DHT22;52812;48.960;9.108;2022-09-17T05:22:48;8.80;99.90
3086;DHT22;52812;48.960;9.108;2022-09-17T05:25:15;8.90;99.90
3086;DHT22;52812;48.960;9.108;2022-09-17T05:27:42;8.90;99.90
3086;DHT22;52812;48.960;9.108;2022-09-17T05:30:08;8.90;99.90
3086;DHT22;52812;48.960;9.108;2022-09-17T05:32:35;9.00;99.90
3086;DHT22;52812;48.960;9.108;2022-09-17T05:35:01;9.00;99.90
3086;DHT22;52812;48.960;9.108;2022-09-17T05:37:27;9.00;99.90
3086;DHT22;52812;48.960;9.108;2022-09-17T05:39:52;9.10;99.90
3086;DHT22;52812;48.960;9.108;2022-09-17T05:42:18;9.20;99.90
3086;DHT22;52812;48.960;9.108;2022-09-17T05:44:43;9.20;99.90
3086;DHT22;52812;48.960;9.108;2022-09-17T05:47:09;9.30;99.90
3086;DHT22;52812;48.960;9.108;2022-09-17T05:49:34;9.30;99.90
3086;DHT22;52812;48.960;9.108;2022-09-17T05:52:00;9.40;99.90
3086;DHT22;52812;48.960;9.108;2022-09-17T05:54:27;9.40;99.90
3086;DHT22;52812;48.960;9.108;2022-09-17T05:56:53;9.40;99.90
3086;DHT22;52812;48.960;9.108;2022-09-17T05:59:19;9.40;99.90
3086;DHT22;52812;48.960;9.108;2022-09-17T06:01:44;9.40;99.90
3086;DHT22;52812;48.960;9.108;2022-09-17T06:04:10;9.40;99.90
3086;DHT22;52812;48.960;9.108;2022-09-17T06:06:36;9.50;99.90
3086;DHT22;52812;48.960;9.108;2022-09-17T06:09:04;9.50;99.90
3086;DHT22;52812;48.960;9.108;2022-09-17T06:11:30;9.50;99.90
3086;DHT22;52812;48.960;9.108;2022-09-17T06:13:55;9.50;99.90
3086;DHT22;52812;48.960;9.108;2022-09-17T06:16:22;9.60;99.90
3086;DHT22;52812;48.960;9.108;2022-09-17T06:18:47;9.60;99.90
3086;DHT22;52812;48.960;9.108;2022-09-17T06:21:14;9.60;99.90
3086;DHT22;52812;48.960;9.108;2022-09-17T06:23:41;9.70;99.90
3086;DHT22;52812;48.960;9.108;2022-09-17T06:26:08;9.80;99.90
3086;DHT22;52812;48.960;9.108;2022-09-17T06:28:34;9.70;99.90
3086;DHT22;52812;48.960;9.108;2022-09-17T06:31:01;9.80;99.90
3086;DHT22;52812;48.960;9.108;2022-09-17T06:33:30;9.80;99.90
3086;DHT22;52812;48.960;9.108;2022-09-17T06:36:09;9.90;99.90
3086;DHT22;52812;48.960;9.108;2022-09-17T06:38:36;9.90;99.90
3086;DHT22;52812;48.960;9.108;2022-09-17T06:41:02;10.00;99.90
3086;DHT22;52812;48.960;9.108;2022-09-17T06:43:28;10.00;99.90
3086;DHT22;52812;48.960;9.108;2022-09-17T06:46:01;9.90;99.90
3086;DHT22;52812;48.960;9.108;2022-09-17T06:48:29;9.90;99.90
3086;DHT22;52812;48.960;9.108;2022-09-17T06:50:59;9.90;99.90
3086;DHT22;52812;48.960;9.108;2022-09-17T06:53:25;10.00;99.90
3086;DHT22;52812;48.960;9.108;2022-09-17T06:55:51;10.00;99.90
3086;DHT22;52812;48.960;9.108;2022-09-17T06:58:16;10.00;99.90
3086;DHT22;52812;48.960;9.108;2022-09-17T07:00:42;9.90;99.90
3086;DHT22;52812;48.960;9.108;2022-09-17T07:03:08;9.90;99.90
3086;DHT22;52812;48.960;9.108;2022-09-17T07:05:33;9.80;99.90
3086;DHT22;52812;48.960;9.108;2022-09-17T07:08:02;9.80;99.90
3086;DHT22;52812;48.960;9.108;2022-09-17T07:10:30;9.80;99.90
3086;DHT22;52812;48.960;9.108;2022-09-17T07:12:55;9.80;99.90
3086;DHT22;52812;48.960;9.108;2022-09-17T07:15:21;9.70;99.90
3086;DHT22;52812;48.960;9.108;2022-09-17T07:17:47;9.60;99.90
3086;DHT22;52812;48.960;9.108;2022-09-17T07:20:13;9.60;99.90
3086;DHT22;52812;48.960;9.108;2022-09-17T07:22:39;9.60;99.90
3086;DHT22;52812;48.960;9.108;2022-09-17T07:25:05;9.70;99.90
3086;DHT22;52812;48.960;9.108;2022-09-17T07:27:31;9.70;99.90
3086;DHT22;52812;48.960;9.108;2022-09-17T07:29:57;9.80;99.90
3086;DHT22;52812;48.960;9.108;2022-09-17T07:32:23;9.80;99.90
3086;DHT22;52812;48.960;9.108;2022-09-17T07:34:49;9.80;99.90
3086;DHT22;52812;48.960;9.108;2022-09-17T07:37:18;9.80;99.90
3086;DHT22;52812;48.960;9.108;2022-09-17T07:39:44;9.80;99.90
3086;DHT22;52812;48.960;9.108;2022-09-17T07:42:10;9.80;99.90
3086;DHT22;52812;48.960;9.108;2022-09-17T07:44:36;9.70;99.90
3086;DHT22;52812;48.960;9.108;2022-09-17T07:47:01;9.70;99.90
3086;DHT22;52812;48.960;9.108;2022-09-17T07:49:27;9.90;99.90
3086;DHT22;52812;48.960;9.108;2022-09-17T07:51:53;9.90;99.90
3086;DHT22;52812;48.960;9.108;2022-09-17T07:54:21;10.00;99.90
3086;DHT22;52812;48.960;9.108;2022-09-17T07:56:47;9.90;99.90
3086;DHT22;52812;48.960;9.108;2022-09-17T07:59:13;10.00;99.90
3086;DHT22;52812;48.960;9.108;2022-09-17T08:01:38;10.10;99.90
3086;DHT22;52812;48.960;9.108;2022-09-17T08:04:05;10.20;99.90
3086;DHT22;52812;48.960;9.108;2022-09-17T08:06:35;10.30;99.90
3086;DHT22;52812;48.960;9.108;2022-09-17T08:09:02;10.30;99.90
3086;DHT22;52812;48.960;9.108;2022-09-17T08:11:29;10.30;99.90
3086;DHT22;52812;48.960;9.108;2022-09-17T08:13:55;10.40;99.90
3086;DHT22;52812;48.960;9.108;2022-09-17T08:16:22;10.60;99.90
3086;DHT22;52812;48.960;9.108;2022-09-17T08:18:51;10.80;99.90
3086;DHT22;52812;48.960;9.108;2022-09-17T08:21:18;10.70;99.90
3086;DHT22;52812;48.960;9.108;2022-09-17T08:23:44;10.80;99.90
3086;DHT22;52812;48.960;9.108;2022-09-17T08:26:15;10.80;99.90
3086;DHT22;52812;48.960;9.108;2022-09-17T08:28:46;11.00;99.90
3086;DHT22;52812;48.960;9.108;2022-09-17T08:31:13;11.50;99.90
3086;DHT22;52812;48.960;9.108;2022-09-17T08:33:39;11.80;99.90
3086;DHT22;52812;48.960;9.108;2022-09-17T08:36:07;12.00;99.90
3086;DHT22;52812;48.960;9.108;2022-09-17T08:38:35;12.00;99.90
3086;DHT22;52812;48.960;9.108;2022-09-17T08:44:01;12.50;99.90
3086;DHT22;52812;48.960;9.108;2022-09-17T08:46:33;12.50;99.90
3086;DHT22;52812;48.960;9.108;2022-09-17T08:49:29;12.80;99.90
3086;DHT22;52812;48.960;9.108;2022-09-17T08:52:31;13.00;99.90
3086;DHT22;52812;48.960;9.108;2022-09-17T08:55:06;12.70;99.90
3086;DHT22;52812;48.960;9.108;2022-09-17T09:00:13;12.60;99.90
3086;DHT22;52812;48.960;9.108;2022-09-17T09:02:58;12.40;99.90
3086;DHT22;52812;48.960;9.108;2022-09-17T09:05:52;12.40;99.90
3086;DHT22;52812;48.960;9.108;2022-09-17T09:10:58;12.40;99.90
3086;DHT22;52812;48.960;9.108;2022-09-17T09:13:39;12.60;99.90
3086;DHT22;52812;48.960;9.108;2022-09-17T09:16:17;12.80;99.90
3086;DHT22;52812;48.960;9.108;2022-09-17T09:18:46;12.70;99.90
3086;DHT22;52812;48.960;9.108;2022-09-17T09:21:28;12.70;99.90
3086;DHT22;52812;48.960;9.108;2022-09-17T09:24:23;12.70;99.90
3086;DHT22;52812;48.960;9.108;2022-09-17T09:27:14;12.80;99.90
3086;DHT22;52812;48.960;9.108;2022-09-17T09:29:52;12.90;99.90
3086;DHT22;52812;48.960;9.108;2022-09-17T09:35:23;13.10;99.90
3086;DHT22;52812;48.960;9.108;2022-09-17T09:40:54;13.10;99.90
3086;DHT22;52812;48.960;9.108;2022-09-17T09:46:07;13.00;99.90
3086;DHT22;52812;48.960;9.108;2022-09-17T09:49:05;13.10;99.90
3086;DHT22;52812;48.960;9.108;2022-09-17T09:56:40;13.20;99.90
3086;DHT22;52812;48.960;9.108;2022-09-17T09:59:07;13.30;99.90
3086;DHT22;52812;48.960;9.108;2022-09-17T10:01:36;13.30;99.90
3086;DHT22;52812;48.960;9.108;2022-09-17T10:04:23;13.40;99.90
3086;DHT22;52812;48.960;9.108;2022-09-17T10:06:58;13.40;99.90
3086;DHT22;52812;48.960;9.108;2022-09-17T10:09:24;13.50;99.90
3086;DHT22;52812;48.960;9.108;2022-09-17T10:12:00;13.40;99.90
3086;DHT22;52812;48.960;9.108;2022-09-17T10:14:28;13.40;99.90
3086;DHT22;52812;48.960;9.108;2022-09-17T10:17:10;13.60;99.90
3086;DHT22;52812;48.960;9.108;2022-09-17T10:19:38;13.90;99.90
3086;DHT22;52812;48.960;9.108;2022-09-17T10:22:19;14.10;99.90
3086;DHT22;52812;48.960;9.108;2022-09-17T10:24:47;13.80;99.90
3086;DHT22;52812;48.960;9.108;2022-09-17T10:27:16;13.50;99.90
3086;DHT22;52812;48.960;9.108;2022-09-17T10:29:45;13.60;99.90
3086;DHT22;52812;48.960;9.108;2022-09-17T10:32:16;13.60;99.90
3086;DHT22;52812;48.960;9.108;2022-09-17T10:35:13;14.00;99.90
3086;DHT22;52812;48.960;9.108;2022-09-17T10:37:43;14.20;99.90
3086;DHT22;52812;48.960;9.108;2022-09-17T10:40:29;14.30;99.90
3086;DHT22;52812;48.960;9.108;2022-09-17T10:45:43;14.10;99.90
3086;DHT22;52812;48.960;9.108;2022-09-17T10:48:20;13.80;99.90
3086;DHT22;52812;48.960;9.108;2022-09-17T10:50:51;13.60;99.90
3086;DHT22;52812;48.960;9.108;2022-09-17T10:53:20;13.70;99.90
3086;DHT22;52812;48.960;9.108;2022-09-17T10:58:54;14.20;99.90
3086;DHT22;52812;48.960;9.108;2022-09-17T11:01:31;14.50;99.90
3086;DHT22;52812;48.960;9.108;2022-09-17T11:28:54;13.50;99.90
3086;DHT22;52812;48.960;9.108;2022-09-17T11:34:27;13.30;99.90
3086;DHT22;52812;48.960;9.108;2022-09-17T11:37:20;13.30;99.90
3086;DHT22;52812;48.960;9.108;2022-09-17T11:42:22;13.30;99.90
3086;DHT22;52812;48.960;9.108;2022-09-17T11:45:00;13.50;99.90
3086;DHT22;52812;48.960;9.108;2022-09-17T11:50:31;13.50;99.90
3086;DHT22;52812;48.960;9.108;2022-09-17T11:53:15;13.60;99.90
3086;DHT22;52812;48.960;9.108;2022-09-17T11:56:02;13.60;99.90
3086;DHT22;52812;48.960;9.108;2022-09-17T11:58:47;13.60;99.90
3086;DHT22;52812;48.960;9.108;2022-09-17T12:04:00;13.60;99.90
3086;DHT22;52812;48.960;9.108;2022-09-17T12:06:39;13.80;99.90
3086;DHT22;52812;48.960;9.108;2022-09-17T12:09:23;14.10;99.90
3086;DHT22;52812;48.960;9.108;2022-09-17T12:12:00;13.90;99.90
3086;DHT22;52812;48.960;9.108;2022-09-17T12:14:49;13.80;99.90
3086;DHT22;52812;48.960;9.108;2022-09-17T12:17:22;13.50;99.90
3086;DHT22;52812;48.960;9.108;2022-09-17T12:19:55;13.50;99.90
3086;DHT22;52812;48.960;9.108;2022-09-17T12:22:31;13.50;99.90
3086;DHT22;52812;48.960;9.108;2022-09-17T12:25:00;13.60;99.90
3086;DHT22;52812;48.960;9.108;2022-09-17T12:30:06;13.60;99.90
3086;DHT22;52812;48.960;9.108;2022-09-17T12:35:35;13.30;99.90
3086;DHT22;52812;48.960;9.108;2022-09-17T12:41:09;13.20;99.90
3086;DHT22;52812;48.960;9.108;2022-09-17T12:52:35;13.60;99.90
3086;DHT22;52812;48.960;9.108;2022-09-17T12:55:31;13.70;99.90
3086;DHT22;52812;48.960;9.108;2022-09-17T12:58:22;13.40;99.90
3086;DHT22;52812;48.960;9.108;2022-09-17T13:01:05;13.30;99.90
3086;DHT22;52812;48.960;9.108;2022-09-17T13:03:41;13.70;99.90
3086;DHT22;52812;48.960;9.108;2022-09-17T13:06:32;14.00;99.90
3086;DHT22;52812;48.960;9.108;2022-09-17T13:09:40;13.80;99.90
3086;DHT22;52812;48.960;9.108;2022-09-17T13:12:30;14.00;99.90
3086;DHT22;52812;48.960;9.108;2022-09-17T13:20:39;13.90;99.90
3086;DHT22;52812;48.960;9.108;2022-09-17T13:23:06;13.80;99.90
3086;DHT22;52812;48.960;9.108;2022-09-17T13:25:32;13.80;99.90
3086;DHT22;52812;48.960;9.108;2022-09-17T13:28:09;13.80;99.90
3086;DHT22;52812;48.960;9.108;2022-09-17T13:30:58;13.90;99.90
3086;DHT22;52812;48.960;9.108;2022-09-17T13:33:47;13.90;99.90
3086;DHT22;52812;48.960;9.108;2022-09-17T13:39:00;14.30;99.90
3086;DHT22;52812;48.960;9.108;2022-09-17T13:41:26;14.20;99.90
3086;DHT22;52812;48.960;9.108;2022-09-17T13:43:53;13.90;99.90
3086;DHT22;52812;48.960;9.108;2022-09-17T13:46:27;13.80;99.90
3086;DHT22;52812;48.960;9.108;2022-09-17T13:48:58;13.80;99.90
3086;DHT22;52812;48.960;9.108;2022-09-17T13:54:05;13.60;99.90
3086;DHT22;52812;48.960;9.108;2022-09-17T13:56:35;13.60;99.90
3086;DHT22;52812;48.960;9.108;2022-09-17T13:59:16;13.50;99.90
3086;DHT22;52812;48.960;9.108;2022-09-17T14:09:57;13.30;99.90
3086;DHT22;52812;48.960;9.108;2022-09-17T14:21:03;13.90;99.90
3086;DHT22;52812;48.960;9.108;2022-09-17T14:23:34;13.90;99.90
3086;DHT22;52812;48.960;9.108;2022-09-17T14:26:08;13.90;99.90
3086;DHT22;52812;48.960;9.108;2022-09-17T14:31:35;14.00;99.90
3086;DHT22;52812;48.960;9.108;2022-09-17T14:34:04;14.10;99.90
3086;DHT22;52812;48.960;9.108;2022-09-17T14:36:33;14.00;99.90
3086;DHT22;52812;48.960;9.108;2022-09-17T14:39:03;14.00;99.90
3086;DHT22;52812;48.960;9.108;2022-09-17T14:41:34;14.10;99.90
3086;DHT22;52812;48.960;9.108;2022-09-17T14:44:16;14.10;99.90
3086;DHT22;52812;48.960;9.108;2022-09-17T14:47:04;14.20;99.90
3086;DHT22;52812;48.960;9.108;2022-09-17T14:49:35;14.20;99.90
3086;DHT22;52812;48.960;9.108;2022-09-17T14:52:02;14.30;99.90
3086;DHT22;52812;48.960;9.108;2022-09-17T14:54:42;14.20;99.90
3086;DHT22;52812;48.960;9.108;2022-09-17T14:59:50;14.20;99.90
3086;DHT22;52812;48.960;9.108;2022-09-17T15:05:11;14.20;99.90
3086;DHT22;52812;48.960;9.108;2022-09-17T15:07:39;14.30;99.90
3086;DHT22;52812;48.960;9.108;2022-09-17T15:10:07;14.30;99.90
3086;DHT22;52812;48.960;9.108;2022-09-17T15:12:34;14.30;99.90
3086;DHT22;52812;48.960;9.108;2022-09-17T15:15:00;14.20;99.90
3086;DHT22;52812;48.960;9.108;2022-09-17T15:17:25;14.00;99.90
3086;DHT22;52812;48.960;9.108;2022-09-17T15:19:54;13.80;99.90
3086;DHT22;52812;48.960;9.108;2022-09-17T15:22:25;13.70;99.90
3086;DHT22;52812;48.960;9.108;2022-09-17T15:25:24;13.60;99.90
3086;DHT22;52812;48.960;9.108;2022-09-17T15:27:54;13.70;99.90
3086;DHT22;52812;48.960;9.108;2022-09-17T15:30:23;13.80;99.90
3086;DHT22;52812;48.960;9.108;2022-09-17T15:32:51;13.90;99.90
3086;DHT22;52812;48.960;9.108;2022-09-17T15:35:30;13.90;99.90
3086;DHT22;52812;48.960;9.108;2022-09-17T15:38:00;14.00;99.90
3086;DHT22;52812;48.960;9.108;2022-09-17T15:40:33;14.10;99.90
3086;DHT22;52812;48.960;9.108;2022-09-17T15:43:04;14.30;99.90
3086;DHT22;52812;48.960;9.108;2022-09-17T15:45:32;14.40;99.90
3086;DHT22;52812;48.960;9.108;2022-09-17T15:48:03;14.30;99.90
3086;DHT22;52812;48.960;9.108;2022-09-17T15:50:31;14.30;99.90
3086;DHT22;52812;48.960;9.108;2022-09-17T15:53:11;14.00;99.90
3086;DHT22;52812;48.960;9.108;2022-09-17T15:55:43;14.00;99.90
3086;DHT22;52812;48.960;9.108;2022-09-17T15:58:25;13.90;99.90
3086;DHT22;52812;48.960;9.108;2022-09-17T16:08:58;13.80;99.90
3086;DHT22;52812;48.960;9.108;2022-09-17T16:11:31;13.80;99.90
3086;DHT22;52812;48.960;9.108;2022-09-17T16:13:59;13.80;99.90
3086;DHT22;52812;48.960;9.108;2022-09-17T16:16:33;13.80;99.90
3086;DHT22;52812;48.960;9.108;2022-09-17T16:18:59;13.70;99.90
3086;DHT22;52812;48.960;9.108;2022-09-17T16:21:24;13.70;99.90
3086;DHT22;52812;48.960;9.108;2022-09-17T16:23:50;13.60;99.90
3086;DHT22;52812;48.960;9.108;2022-09-17T16:26:24;13.60;99.90
3086;DHT22;52812;48.960;9.108;2022-09-17T16:28:53;13.50;99.90
3086;DHT22;52812;48.960;9.108;2022-09-17T16:31:21;13.40;99.90
3086;DHT22;52812;48.960;9.108;2022-09-17T16:33:46;13.40;99.90
3086;DHT22;52812;48.960;9.108;2022-09-17T16:36:15;13.40;99.90
3086;DHT22;52812;48.960;9.108;2022-09-17T16:38:41;13.40;99.90
3086;DHT22;52812;48.960;9.108;2022-09-17T16:41:06;13.30;99.90
3086;DHT22;52812;48.960;9.108;2022-09-17T16:43:32;13.20;99.90
3086;DHT22;52812;48.960;9.108;2022-09-17T16:46:03;13.10;99.90
3086;DHT22;52812;48.960;9.108;2022-09-17T16:48:31;13.10;99.90
3086;DHT22;52812;48.960;9.108;2022-09-17T16:50:57;13.00;99.90
3086;DHT22;52812;48.960;9.108;2022-09-17T16:53:22;12.90;99.90
3086;DHT22;52812;48.960;9.108;2022-09-17T16:55:48;12.90;99.90
3086;DHT22;52812;48.960;9.108;2022-09-17T16:58:13;12.80;99.90
3086;DHT22;52812;48.960;9.108;2022-09-17T17:00:42;12.80;99.90
3086;DHT22;52812;48.960;9.108;2022-09-17T17:03:11;12.70;99.90
3086;DHT22;52812;48.960;9.108;2022-09-17T17:05:37;12.70;99.90
3086;DHT22;52812;48.960;9.108;2022-09-17T17:08:03;12.60;99.90
3086;DHT22;52812;48.960;9.108;2022-09-17T17:10:29;12.20;99.90
3086;DHT22;52812;48.960;9.108;2022-09-17T17:12:55;11.80;99.90
3086;DHT22;52812;48.960;9.108;2022-09-17T17:15:21;11.50;99.90
3086;DHT22;52812;48.960;9.108;2022-09-17T17:17:48;11.30;99.90
3086;DHT22;52812;48.960;9.108;2022-09-17T17:20:13;11.10;99.90
3086;DHT22;52812;48.960;9.108;2022-09-17T17:22:43;11.00;99.90
3086;DHT22;52812;48.960;9.108;2022-09-17T17:25:10;11.00;99.90
3086;DHT22;52812;48.960;9.108;2022-09-17T17:27:36;10.80;99.90
3086;DHT22;52812;48.960;9.108;2022-09-17T17:30:04;10.80;99.90
3086;DHT22;52812;48.960;9.108;2022-09-17T17:32:31;10.80;99.90
3086;DHT22;52812;48.960;9.108;2022-09-17T17:34:57;10.80;99.90
3086;DHT22;52812;48.960;9.108;2022-09-17T17:37:23;10.70;99.90
3086;DHT22;52812;48.960;9.108;2022-09-17T17:39:48;10.80;99.90
3086;DHT22;52812;48.960;9.108;2022-09-17T17:42:14;10.80;99.90
3086;DHT22;52812;48.960;9.108;2022-09-17T17:44:40;10.80;99.90
3086;DHT22;52812;48.960;9.108;2022-09-17T17:47:05;10.80;99.90
3086;DHT22;52812;48.960;9.108;2022-09-17T17:49:32;10.80;99.90
3086;DHT22;52812;48.960;9.108;2022-09-17T17:51:58;10.80;99.90
3086;DHT22;52812;48.960;9.108;2022-09-17T17:54:24;10.80;99.90
3086;DHT22;52812;48.960;9.108;2022-09-17T17:56:51;10.80;99.90
3086;DHT22;52812;48.960;9.108;2022-09-17T17:59:17;10.80;99.90
3086;DHT22;52812;48.960;9.108;2022-09-17T18:01:42;10.80;99.90
3086;DHT22;52812;48.960;9.108;2022-09-17T18:04:08;10.90;99.90
3086;DHT22;52812;48.960;9.108;2022-09-17T18:06:34;10.90;99.90
3086;DHT22;52812;48.960;9.108;2022-09-17T18:09:00;10.90;99.90
3086;DHT22;52812;48.960;9.108;2022-09-17T18:11:26;10.90;99.90
3086;DHT22;52812;48.960;9.108;2022-09-17T18:13:54;10.80;99.90
3086;DHT22;52812;48.960;9.108;2022-09-17T18:16:20;10.90;99.90
3086;DHT22;52812;48.960;9.108;2022-09-17T18:18:46;10.90;99.90
3086;DHT22;52812;48.960;9.108;2022-09-17T18:21:15;10.90;99.90
3086;DHT22;52812;48.960;9.108;2022-09-17T18:23:41;10.90;99.90
3086;DHT22;52812;48.960;9.108;2022-09-17T18:26:10;10.90;99.90
3086;DHT22;52812;48.960;9.108;2022-09-17T18:28:37;10.90;99.90
3086;DHT22;52812;48.960;9.108;2022-09-17T18:31:08;10.80;99.90
3086;DHT22;52812;48.960;9.108;2022-09-17T18:33:34;10.80;99.90
3086;DHT22;52812;48.960;9.108;2022-09-17T18:36:02;10.80;99.90
3086;DHT22;52812;48.960;9.108;2022-09-17T18:38:28;10.80;99.90
3086;DHT22;52812;48.960;9.108;2022-09-17T18:40:54;10.80;99.90
3086;DHT22;52812;48.960;9.108;2022-09-17T18:43:19;10.80;99.90
3086;DHT22;52812;48.960;9.108;2022-09-17T18:45:55;10.80;99.90
3086;DHT22;52812;48.960;9.108;2022-09-17T18:48:22;10.80;99.90
3086;DHT22;52812;48.960;9.108;2022-09-17T18:50:58;10.80;99.90
3086;DHT22;52812;48.960;9.108;2022-09-17T18:53:26;10.70;99.90
3086;DHT22;52812;48.960;9.108;2022-09-17T18:55:53;10.70;99.90
3086;DHT22;52812;48.960;9.108;2022-09-17T18:58:20;10.60;99.90
3086;DHT22;52812;48.960;9.108;2022-09-17T19:00:46;10.60;99.90
3086;DHT22;52812;48.960;9.108;2022-09-17T19:03:11;10.50;99.90
3086;DHT22;52812;48.960;9.108;2022-09-17T19:05:37;10.50;99.90
3086;DHT22;52812;48.960;9.108;2022-09-17T19:08:02;10.50;99.90
3086;DHT22;52812;48.960;9.108;2022-09-17T19:10:30;10.40;99.90
3086;DHT22;52812;48.960;9.108;2022-09-17T19:12:56;10.40;99.90
3086;DHT22;52812;48.960;9.108;2022-09-17T19:15:22;10.40;99.90
3086;DHT22;52812;48.960;9.108;2022-09-17T19:17:48;10.30;99.90
3086;DHT22;52812;48.960;9.108;2022-09-17T19:20:14;10.30;99.90
3086;DHT22;52812;48.960;9.108;2022-09-17T19:22:40;10.30;99.90
3086;DHT22;52812;48.960;9.108;2022-09-17T19:25:06;10.20;99.90
3086;DHT22;52812;48.960;9.108;2022-09-17T19:27:31;10.10;99.90
3086;DHT22;52812;48.960;9.108;2022-09-17T19:29:57;10.10;99.90
3086;DHT22;52812;48.960;9.108;2022-09-17T19:32:24;10.00;99.90
3086;DHT22;52812;48.960;9.108;2022-09-17T19:34:52;10.00;99.90